Aycock, Louisiana
Current Conditions -  °F | °C
As of 4:15 AM on Thursday 29 Jan 2015 (Local Time) from KRSN Reporting Station
Clear Clear  
Wind Chill: 52°   Ceiling: Unl
Heat Index: 52°   Visibility: 10mi
Dew Point: 50°   Wind: 7mph
Humidity: 95%   Direction: 200°SSW
Pressure: 30.15"   Gusts: NA
Location:  32.7443°N, 92.9625°W
Report Text: KRSN 291015Z AUTO 20006KT 10SM CLR 11/10 A3015 RMK AO2 T01100102
Loading
Personal Weather Stations






























Interactive Weather Map New forecast layout! Learn more

10-Day Weather Forecast

Advertisements
Track Severe Weather on mobile